Ugrinovci/ Elgra Vižn

LYEV · Central Serbia, Serbia

罗盘
风向 的 风向 的 风向 到 风向 150° 直升机
风: 15 kt, 4 beaufort
0 ft 1.000 2.000 3.000 4.000 5.000
CAVOK
METAR LYBT 161000Z 15015KT 120V190 CAVOK 37/15 Q1011 NOSIG

METAR Ugrinovci/ Elgra Vižn - LYEV

Ugrinovci/ Elgra Vižn是,Serbia中的直升机场。 该机场位于纬度44,86722和经度20,18750。 本场的ICAO机场代码为LYEV。 机场在Beograd FIR中。

该航空气象观测是针对Batajnica Air Base在2024年7月16日 12:00, 当地时间进行的。

机场观察

风向为150°,速度为15 kt。 风向在120°和190°之间变化。

天气为CAVOK。这意味着在5.000 ft或MSA(最低安全高度)以下(以较高者为准)以下没有云。这也意味着没有观测到积雨云或高耸的积云,可见度为10 km 或者更多或更高。此外,不会有雾,降雨或其他重要天气。

温度和风寒是37 °C。 露点为15 °C,相对湿度为27%。 海平面上的气压为1011 hPa (QNH)。

白天

今天,太阳从05:08升起,在20:21降落。 这适用于Ugrinovci/ Elgra Vižn,世界夏令时可能有所不同。 当地时间与世界标准时间之间的时差为+2 小时。 夏令时目前正在进行中。

公司介绍

我们没有关于这个机场的公司信息。

体会

到Vliegles.nl去找飞行课程,跳伞和其他飞行体验。 浏览页面,了解Ugrinovci/ Elgra Vižn附近所有可用的活动。 你也可以使用搜索功能来寻找你所在地附近的特定飞行课程、跳伞或其他飞行体验。

温度 & 天气

温度 37 °C
露点 15 °C
相对湿度 27%
Kp-index 1 (0-9)

白天

日出
05:08
中午
12:45
日落
20:21 (8:10)

小工具

你想在你的网站上有一个关于Ugrinovci/ Elgra Vižn的当前航空天气(METAR)的小部件吗?

显示HTML代码
报告变更